Time;durP1;ratioP1;P1;durP2;ratioP2;P2;SDS_P1;SDS_P2;PMS_P1;PMS_P2;Temp;Humidity;BMP_temperature;BMP_pressure;BME280_temperature;BME280_humidity;BME280_pressure;Samples;Min_cycle;Max_cycle;Signal;HPM_P1;HPM_P2
2022/10/01 00:00:19;;;;;;;4.93;2.20;;;11.60;99.90;;;;;;5070470;28;20044;-73
2022/10/01 00:02:45;;;;;;;3.47;2.10;;;11.60;99.90;;;;;;5047433;28;20055;-73
2022/10/01 00:05:11;;;;;;;4.75;2.28;;;11.60;99.90;;;;;;5053025;28;20041;-73
2022/10/01 00:07:42;;;;;;;3.70;2.15;;;11.50;99.90;;;;;;5061745;28;20419;-73
2022/10/01 00:10:09;;;;;;;4.57;2.60;;;11.50;99.90;;;;;;5068505;28;20033;-73
2022/10/01 00:12:36;;;;;;;4.55;2.58;;;11.50;99.90;;;;;;5102517;27;20036;-73
2022/10/01 00:15:03;;;;;;;3.05;1.90;;;11.50;99.90;;;;;;5050611;28;20036;-73
2022/10/01 00:17:28;;;;;;;3.63;2.08;;;11.40;99.90;;;;;;5067646;28;20624;-73
2022/10/01 00:19:54;;;;;;;6.70;2.42;;;11.50;99.90;;;;;;5096833;27;20141;-73
2022/10/01 00:22:20;;;;;;;5.28;2.72;;;11.40;99.90;;;;;;5099849;27;20106;-73
2022/10/01 00:24:46;;;;;;;3.97;2.40;;;11.40;99.90;;;;;;5071208;28;20114;-74
2022/10/01 00:27:12;;;;;;;5.47;3.47;;;11.40;99.90;;;;;;5049073;28;20927;-73
2022/10/01 00:29:39;;;;;;;4.65;2.70;;;11.40;99.90;;;;;;5061256;28;20047;-73
2022/10/01 00:32:04;;;;;;;3.40;2.17;;;11.40;99.90;;;;;;5069003;28;20039;-73
2022/10/01 00:34:30;;;;;;;4.28;2.35;;;11.30;99.90;;;;;;5071058;28;22137;-73
2022/10/01 00:36:56;;;;;;;4.20;2.45;;;11.40;99.90;;;;;;5090942;28;20040;-74
2022/10/01 00:39:22;;;;;;;4.38;2.20;;;11.40;99.90;;;;;;5055530;28;20116;-73
2022/10/01 00:41:48;;;;;;;4.55;2.15;;;11.30;99.90;;;;;;5067356;28;20048;-74
2022/10/01 00:44:34;;;;;;;4.22;2.22;;;11.30;99.90;;;;;;5069725;28;20044;-73
2022/10/01 00:47:07;;;;;;;3.50;2.20;;;11.30;99.90;;;;;;5082386;28;20055;-74
2022/10/01 00:49:35;;;;;;;4.18;2.50;;;11.30;99.90;;;;;;5065670;28;20483;-74
2022/10/01 00:52:06;;;;;;;4.53;2.72;;;11.30;99.90;;;;;;5063988;28;20035;-73
2022/10/01 00:54:45;;;;;;;5.05;2.42;;;11.30;99.90;;;;;;5063317;28;20046;-73
2022/10/01 00:57:14;;;;;;;4.10;2.35;;;11.30;99.90;;;;;;5053763;28;20106;-73
2022/10/01 00:59:39;;;;;;;4.80;2.20;;;11.30;99.90;;;;;;5055799;28;20545;-73
2022/10/01 01:02:05;;;;;;;4.47;2.42;;;11.30;99.90;;;;;;5067165;28;20028;-73
2022/10/01 01:04:31;;;;;;;4.35;2.60;;;11.30;99.90;;;;;;5063416;28;20078;-73
2022/10/01 01:07:00;;;;;;;4.35;2.67;;;11.20;99.90;;;;;;5064426;28;20970;-73
2022/10/01 01:09:39;;;;;;;5.20;2.63;;;11.20;99.90;;;;;;5063638;28;20041;-73
2022/10/01 01:12:38;;;;;;;4.50;2.67;;;11.30;99.90;;;;;;5065106;28;20039;-73
2022/10/01 01:15:14;;;;;;;3.05;2.08;;;11.30;99.90;;;;;;5067168;28;20159;-73
2022/10/01 01:17:54;;;;;;;4.22;2.30;;;11.30;99.90;;;;;;5059824;28;20041;-73
2022/10/01 01:20:45;;;;;;;4.28;2.65;;;11.30;99.90;;;;;;5095984;27;20158;-73
2022/10/01 01:23:13;;;;;;;4.97;2.47;;;11.20;99.90;;;;;;5063685;28;20044;-73
2022/10/01 01:26:11;;;;;;;3.05;1.90;;;11.20;99.90;;;;;;5062094;28;20109;-74
2022/10/01 01:28:49;;;;;;;3.83;2.30;;;11.20;99.90;;;;;;5066429;28;20063;-73
2022/10/01 01:31:20;;;;;;;4.03;2.53;;;11.20;99.90;;;;;;5050788;28;21013;-73
2022/10/01 01:33:49;;;;;;;3.03;2.08;;;11.20;99.90;;;;;;5066916;28;20078;-74
2022/10/01 01:36:20;;;;;;;3.80;2.15;;;11.20;99.90;;;;;;5085284;28;20036;-74
2022/10/01 01:38:50;;;;;;;6.20;2.72;;;11.20;99.90;;;;;;5063489;28;20047;-73
2022/10/01 01:41:19;;;;;;;3.38;2.30;;;11.20;99.90;;;;;;5099178;27;20043;-74
2022/10/01 01:43:50;;;;;;;4.03;2.72;;;11.20;99.90;;;;;;5076096;28;20039;-73
2022/10/01 01:46:17;;;;;;;3.65;2.33;;;11.20;99.90;;;;;;5048962;28;20047;-73
2022/10/01 01:48:46;;;;;;;4.65;2.58;;;11.10;99.90;;;;;;5061770;28;20071;-73
2022/10/01 01:51:32;;;;;;;3.70;2.22;;;11.10;99.90;;;;;;5055947;28;20041;-73
2022/10/01 01:53:59;;;;;;;5.13;2.60;;;11.20;99.90;;;;;;5041585;28;20060;-73
2022/10/01 01:56:25;;;;;;;4.65;2.60;;;11.10;99.90;;;;;;5091920;27;20116;-73
2022/10/01 01:58:52;;;;;;;3.95;2.38;;;11.10;99.90;;;;;;5056019;28;20143;-73
2022/10/01 02:01:37;;;;;;;4.50;2.60;;;11.10;99.90;;;;;;5047693;28;20048;-73
2022/10/01 02:04:08;;;;;;;4.00;2.20;;;11.10;99.90;;;;;;5064619;28;20037;-73
2022/10/01 02:06:52;;;;;;;4.45;2.30;;;11.10;99.90;;;;;;5051939;28;20112;-73
2022/10/01 02:09:26;;;;;;;4.97;2.70;;;11.10;99.90;;;;;;5069002;28;20048;-73
2022/10/01 02:12:21;;;;;;;4.93;2.58;;;11.10;99.90;;;;;;5050638;28;20041;-73
2022/10/01 02:15:04;;;;;;;3.35;2.38;;;11.10;99.90;;;;;;5056683;28;20033;-73
2022/10/01 02:18:06;;;;;;;4.50;2.08;;;11.20;99.90;;;;;;5053526;28;20250;-73
2022/10/01 02:20:40;;;;;;;4.72;2.38;;;11.10;99.90;;;;;;5051682;28;21038;-73
2022/10/01 02:23:12;;;;;;;4.63;2.35;;;11.10;99.90;;;;;;5060335;28;20032;-73
2022/10/01 02:25:45;;;;;;;3.65;2.42;;;11.10;99.90;;;;;;5070123;28;20045;-73
2022/10/01 02:28:14;;;;;;;3.83;2.10;;;11.10;99.90;;;;;;5061175;28;20524;-73
2022/10/01 02:30:43;;;;;;;5.40;2.45;;;11.10;99.90;;;;;;5067399;28;20131;-73
2022/10/01 02:33:12;;;;;;;4.32;2.50;;;11.10;99.90;;;;;;5080637;28;20118;-73
2022/10/01 02:35:40;;;;;;;2.65;1.80;;;11.10;99.90;;;;;;5061044;28;20040;-73
2022/10/01 02:38:08;;;;;;;4.65;2.50;;;11.10;99.90;;;;;;5059929;28;20051;-74
2022/10/01 02:40:38;;;;;;;3.45;2.13;;;11.10;99.90;;;;;;5069503;28;20036;-73
2022/10/01 02:43:23;;;;;;;4.45;2.42;;;11.10;99.90;;;;;;5067953;28;20036;-73
2022/10/01 02:45:55;;;;;;;3.15;1.88;;;11.10;99.90;;;;;;5058348;28;20059;-73
2022/10/01 02:48:21;;;;;;;3.13;2.03;;;11.10;99.90;;;;;;5085988;28;20036;-73
2022/10/01 02:50:55;;;;;;;3.95;1.90;;;11.00;99.90;;;;;;5074220;28;20305;-73
2022/10/01 02:53:34;;;;;;;2.75;1.85;;;11.10;99.90;;;;;;5054523;28;20116;-73
2022/10/01 02:56:02;;;;;;;4.05;2.30;;;11.10;99.90;;;;;;5045553;28;20114;-73
2022/10/01 02:58:28;;;;;;;5.03;2.33;;;11.10;99.90;;;;;;5090429;28;20074;-73
2022/10/01 03:00:53;;;;;;;2.97;1.85;;;11.10;99.90;;;;;;5062241;28;20414;-73
2022/10/01 03:03:19;;;;;;;4.13;1.88;;;11.10;99.90;;;;;;5095427;28;20047;-73
2022/10/01 03:05:45;;;;;;;4.60;2.47;;;11.10;99.90;;;;;;5067829;28;20049;-73
2022/10/01 03:08:10;;;;;;;4.45;2.08;;;11.10;99.90;;;;;;5051125;28;20059;-73
2022/10/01 03:10:36;;;;;;;2.75;1.38;;;11.10;99.90;;;;;;5066818;28;20077;-73
2022/10/01 03:13:02;;;;;;;3.55;2.08;;;11.10;99.90;;;;;;5047766;28;20478;-73
2022/10/01 03:15:28;;;;;;;2.50;1.35;;;11.20;99.90;;;;;;5048505;28;20115;-73
2022/10/01 03:17:54;;;;;;;3.03;1.75;;;11.10;99.90;;;;;;5057170;28;20088;-73
2022/10/01 03:20:20;;;;;;;3.25;1.48;;;11.20;99.90;;;;;;5074366;28;20032;-73
2022/10/01 03:22:46;;;;;;;3.65;1.98;;;11.20;99.90;;;;;;5049374;28;20036;-73
2022/10/01 03:25:14;;;;;;;3.05;1.48;;;11.20;99.90;;;;;;5066437;28;20082;-73
2022/10/01 03:27:39;;;;;;;3.92;1.80;;;11.20;99.90;;;;;;5070249;28;20720;-74
2022/10/01 03:30:05;;;;;;;2.70;1.05;;;11.20;99.90;;;;;;5094198;28;20074;-74
2022/10/01 03:32:32;;;;;;;5.47;1.85;;;11.20;99.90;;;;;;5063629;28;20036;-74
2022/10/01 03:34:58;;;;;;;2.70;1.38;;;11.20;99.90;;;;;;5060263;28;20033;-73
2022/10/01 03:37:24;;;;;;;1.90;0.98;;;11.20;99.90;;;;;;5051273;28;20508;-73
2022/10/01 03:39:49;;;;;;;2.15;1.02;;;11.20;99.90;;;;;;5059525;28;20047;-73
2022/10/01 03:42:15;;;;;;;2.15;1.17;;;11.30;99.90;;;;;;5081668;28;20032;-73
2022/10/01 03:44:42;;;;;;;2.53;1.17;;;11.20;99.90;;;;;;5063480;28;20033;-73
2022/10/01 03:47:08;;;;;;;1.52;0.82;;;11.20;99.90;;;;;;5055045;28;20024;-73
2022/10/01 03:49:34;;;;;;;3.15;1.20;;;11.30;99.90;;;;;;5072063;28;20033;-73
2022/10/01 03:52:01;;;;;;;3.60;1.73;;;11.30;99.90;;;;;;5059746;28;20037;-73
2022/10/01 03:54:29;;;;;;;2.17;1.02;;;11.30;99.90;;;;;;5097029;27;20039;-74
2022/10/01 03:56:54;;;;;;;2.38;1.13;;;11.20;99.90;;;;;;5043041;28;20052;-73
2022/10/01 03:59:20;;;;;;;1.88;1.13;;;11.30;99.90;;;;;;5071414;28;20490;-73
2022/10/01 04:01:46;;;;;;;1.10;0.60;;;11.30;99.90;;;;;;5058358;28;20729;-73
2022/10/01 04:04:11;;;;;;;2.35;1.30;;;11.30;99.90;;;;;;5043458;28;20041;-73
2022/10/01 04:06:37;;;;;;;1.83;0.82;;;11.20;99.90;;;;;;5052507;28;20056;-73
2022/10/01 04:09:03;;;;;;;1.25;0.80;;;11.20;99.90;;;;;;5066667;28;20048;-73
2022/10/01 04:11:29;;;;;;;2.58;0.93;;;11.20;99.90;;;;;;5055720;28;20028;-73
2022/10/01 04:13:56;;;;;;;1.52;0.90;;;11.20;99.90;;;;;;5049299;28;21716;-73
2022/10/01 04:16:23;;;;;;;1.52;1.00;;;11.30;99.90;;;;;;5046909;28;20064;-73
2022/10/01 04:18:49;;;;;;;2.38;1.20;;;11.30;99.90;;;;;;5066857;28;20040;-73
2022/10/01 04:21:15;;;;;;;1.60;1.00;;;11.30;99.90;;;;;;5071196;28;20060;-73
2022/10/01 04:23:41;;;;;;;2.42;1.20;;;11.30;99.90;;;;;;5057943;28;20162;-73
2022/10/01 04:26:07;;;;;;;0.88;0.50;;;11.30;99.90;;;;;;5058047;28;20122;-73
2022/10/01 04:28:32;;;;;;;1.50;0.80;;;11.30;99.90;;;;;;5062927;28;20032;-73
2022/10/01 04:33:43;;;;;;;1.40;0.88;;;11.30;99.90;;;;;;5079549;28;20051;-74
2022/10/01 04:36:08;;;;;;;1.80;0.82;;;11.30;99.90;;;;;;5040357;28;20041;-73
2022/10/01 04:38:34;;;;;;;1.98;1.25;;;11.40;99.90;;;;;;5089366;28;20036;-73
2022/10/01 04:40:59;;;;;;;1.02;0.57;;;11.30;99.90;;;;;;5075115;28;20045;-73
2022/10/01 04:43:25;;;;;;;2.03;1.15;;;11.40;99.90;;;;;;5072353;28;20033;-73
2022/10/01 04:45:51;;;;;;;2.47;1.00;;;11.40;99.90;;;;;;5061408;28;20407;-73
2022/10/01 04:48:17;;;;;;;1.70;0.80;;;11.40;99.90;;;;;;5064608;28;20041;-73
2022/10/01 04:50:42;;;;;;;1.17;0.63;;;11.40;99.90;;;;;;5045780;28;20501;-74
2022/10/01 04:53:08;;;;;;;1.75;1.00;;;11.40;99.90;;;;;;5056484;28;20059;-73
2022/10/01 04:55:33;;;;;;;1.80;0.90;;;11.40;99.90;;;;;;5092874;27;20387;-73
2022/10/01 04:57:59;;;;;;;1.42;0.70;;;11.40;99.90;;;;;;5056222;28;20445;-73
2022/10/01 05:00:25;;;;;;;1.63;0.85;;;11.40;99.90;;;;;;5057844;28;20049;-73
2022/10/01 05:02:52;;;;;;;0.90;0.57;;;11.40;99.90;;;;;;5048834;28;20040;-73
2022/10/01 05:05:20;;;;;;;1.85;1.10;;;11.40;99.90;;;;;;5070013;28;20097;-73
2022/10/01 05:07:46;;;;;;;1.63;0.95;;;11.50;99.90;;;;;;5051135;28;20047;-73
2022/10/01 05:10:18;;;;;;;1.35;0.73;;;11.50;99.90;;;;;;5072226;28;20033;-73
2022/10/01 05:12:45;;;;;;;1.50;0.98;;;11.50;99.90;;;;;;5079711;28;20037;-73
2022/10/01 05:15:11;;;;;;;2.45;0.98;;;11.50;99.90;;;;;;5067774;28;20035;-73
2022/10/01 05:17:36;;;;;;;1.17;0.70;;;11.50;99.90;;;;;;5044057;28;20039;-73
2022/10/01 05:20:04;;;;;;;1.50;0.82;;;11.50;99.90;;;;;;5061388;28;20051;-73
2022/10/01 05:22:30;;;;;;;2.20;1.15;;;11.50;99.90;;;;;;5065936;28;20040;-73
2022/10/01 05:24:59;;;;;;;4.68;1.08;;;11.50;99.90;;;;;;5070297;28;20052;-73
2022/10/01 05:27:25;;;;;;;2.35;1.00;;;11.50;99.90;;;;;;5062188;28;20044;-73
2022/10/01 05:29:52;;;;;;;1.10;0.75;;;11.50;99.90;;;;;;5063961;28;20493;-73
2022/10/01 05:32:18;;;;;;;2.30;1.05;;;11.60;99.90;;;;;;5040235;28;20033;-73
2022/10/01 05:34:43;;;;;;;2.85;1.10;;;11.60;99.90;;;;;;5048605;28;20039;-73
2022/10/01 05:37:09;;;;;;;2.33;0.82;;;11.60;99.90;;;;;;5069370;28;20036;-74
2022/10/01 05:39:35;;;;;;;2.22;0.85;;;11.60;99.90;;;;;;5061058;28;21433;-73
2022/10/01 05:42:01;;;;;;;1.73;1.05;;;11.60;99.90;;;;;;5056261;28;20044;-73
2022/10/01 05:44:27;;;;;;;1.27;0.70;;;11.70;99.90;;;;;;5050451;28;20070;-73
2022/10/01 05:46:53;;;;;;;1.52;0.88;;;11.60;99.90;;;;;;5066912;28;20409;-73
2022/10/01 05:49:18;;;;;;;1.10;0.85;;;11.60;99.90;;;;;;5042529;28;20043;-73
2022/10/01 05:51:44;;;;;;;1.33;0.80;;;11.70;99.90;;;;;;5061644;28;20044;-73
2022/10/01 05:54:11;;;;;;;1.83;1.10;;;11.70;99.90;;;;;;5094586;27;20040;-73
2022/10/01 05:56:37;;;;;;;2.28;1.08;;;11.70;99.90;;;;;;5061378;28;20040;-73
2022/10/01 05:59:03;;;;;;;1.65;1.38;;;11.80;99.90;;;;;;5061280;28;20077;-73
2022/10/01 06:01:31;;;;;;;2.10;1.05;;;11.80;99.90;;;;;;5096631;27;20036;-73
2022/10/01 06:03:57;;;;;;;1.73;0.90;;;11.80;99.90;;;;;;5097435;27;20474;-73
2022/10/01 06:06:26;;;;;;;1.55;0.93;;;11.80;99.90;;;;;;5069682;28;20067;-73
2022/10/01 06:08:52;;;;;;;4.57;1.40;;;11.70;99.90;;;;;;5069862;28;20044;-73
2022/10/01 06:11:20;;;;;;;2.65;1.33;;;11.80;99.90;;;;;;5088894;28;20049;-73
2022/10/01 06:13:46;;;;;;;2.10;1.20;;;11.80;99.90;;;;;;5061216;28;20043;-74
2022/10/01 06:16:12;;;;;;;1.90;1.30;;;11.80;99.90;;;;;;5053318;28;20045;-73
2022/10/01 06:18:39;;;;;;;4.75;1.40;;;11.90;99.90;;;;;;5093780;27;20044;-73
2022/10/01 06:21:05;;;;;;;1.83;1.15;;;11.90;99.90;;;;;;5058880;28;20059;-71
2022/10/01 06:23:31;;;;;;;4.25;1.40;;;11.90;99.90;;;;;;5044468;28;20041;-74
2022/10/01 06:25:59;;;;;;;2.47;1.35;;;11.90;99.90;;;;;;5069475;28;20098;-73
2022/10/01 06:28:25;;;;;;;1.98;1.20;;;11.90;99.90;;;;;;5051224;28;20080;-73
2022/10/01 06:30:51;;;;;;;1.52;0.80;;;12.00;99.90;;;;;;5052416;28;20148;-74
2022/10/01 06:33:17;;;;;;;2.97;1.40;;;12.00;99.90;;;;;;5064218;28;20041;-74
2022/10/01 06:35:48;;;;;;;1.65;1.10;;;12.00;99.90;;;;;;5060693;28;20366;-74
2022/10/01 06:38:15;;;;;;;2.40;1.52;;;12.10;99.90;;;;;;5059357;28;20194;-74
2022/10/01 06:40:41;;;;;;;3.40;1.70;;;12.10;99.90;;;;;;5084841;28;20049;-74
2022/10/01 06:43:07;;;;;;;2.22;1.30;;;12.20;99.90;;;;;;5076005;28;20044;-74
2022/10/01 06:45:37;;;;;;;3.03;1.80;;;12.20;99.90;;;;;;5074832;28;20047;-74
2022/10/01 06:48:03;;;;;;;2.95;1.60;;;12.20;99.90;;;;;;5066422;28;20040;-75
2022/10/01 06:50:32;;;;;;;2.83;1.70;;;12.20;99.90;;;;;;5068690;28;20712;-74
2022/10/01 06:52:59;;;;;;;2.63;1.70;;;12.30;99.90;;;;;;5061254;28;20036;-74
2022/10/01 06:55:27;;;;;;;2.72;2.08;;;12.40;99.90;;;;;;5046504;28;20441;-74
2022/10/01 06:58:05;;;;;;;2.60;1.70;;;12.30;99.90;;;;;;5061998;28;20412;-75
2022/10/01 07:00:34;;;;;;;3.15;1.83;;;12.30;99.90;;;;;;5056128;28;20040;-74
2022/10/01 07:02:59;;;;;;;3.17;1.63;;;12.40;99.90;;;;;;5078857;28;20033;-74
2022/10/01 07:05:25;;;;;;;2.85;1.98;;;12.30;99.90;;;;;;5042580;28;20086;-74
2022/10/01 07:07:52;;;;;;;2.40;1.38;;;12.40;99.90;;;;;;5051311;28;20419;-74
2022/10/01 07:10:19;;;;;;;5.28;1.60;;;12.50;99.90;;;;;;5059636;28;20076;-74
2022/10/01 07:12:47;;;;;;;2.70;1.70;;;12.50;99.90;;;;;;5058764;28;20040;-74
2022/10/01 07:15:14;;;;;;;2.03;1.63;;;12.60;99.90;;;;;;5098592;28;20490;-73
2022/10/01 07:17:48;;;;;;;3.03;2.13;;;12.60;99.90;;;;;;5069801;28;20048;-76
2022/10/01 07:20:18;;;;;;;2.28;1.40;;;12.60;99.90;;;;;;5073041;28;20466;-73
2022/10/01 07:22:45;;;;;;;3.08;1.95;;;12.60;99.90;;;;;;5057885;28;20040;-73
2022/10/01 07:25:10;;;;;;;3.55;1.70;;;12.60;99.90;;;;;;5083645;28;20066;-73
2022/10/01 07:27:37;;;;;;;2.95;1.70;;;12.60;99.90;;;;;;5066872;28;20429;-73
2022/10/01 07:30:04;;;;;;;2.30;1.55;;;12.60;99.90;;;;;;5081798;28;20561;-73
2022/10/01 07:32:30;;;;;;;3.20;2.05;;;12.60;99.90;;;;;;5092320;28;20036;-73
2022/10/01 07:34:56;;;;;;;1.88;1.25;;;12.60;99.90;;;;;;5073612;28;20086;-73
2022/10/01 07:37:22;;;;;;;2.75;1.83;;;12.60;99.90;;;;;;5050474;28;20115;-73
2022/10/01 07:39:48;;;;;;;2.60;1.90;;;12.60;99.90;;;;;;5051808;28;20421;-73
2022/10/01 07:42:14;;;;;;;2.28;1.42;;;12.70;99.90;;;;;;5063840;28;20043;-73
2022/10/01 07:44:39;;;;;;;3.00;1.95;;;12.70;99.90;;;;;;5060391;28;20083;-73
2022/10/01 07:47:05;;;;;;;2.30;1.42;;;12.80;99.90;;;;;;5055407;28;20037;-73
2022/10/01 07:49:30;;;;;;;1.92;1.40;;;12.90;99.90;;;;;;5072970;28;20066;-73
2022/10/01 07:51:57;;;;;;;10.52;1.70;;;12.90;99.90;;;;;;5070673;28;20282;-73
2022/10/01 07:54:24;;;;;;;1.90;1.48;;;13.00;99.90;;;;;;5069949;28;20029;-73
2022/10/01 07:56:54;;;;;;;2.67;1.85;;;13.00;99.90;;;;;;5054209;28;20036;-73
2022/10/01 07:59:20;;;;;;;2.40;1.30;;;13.10;99.90;;;;;;5075621;28;20048;-73
2022/10/01 08:01:53;;;;;;;5.60;2.30;;;13.10;99.90;;;;;;5077702;28;20052;-73
2022/10/01 08:07:05;;;;;;;2.20;1.50;;;13.00;99.90;;;;;;5086104;28;20045;-73
2022/10/01 08:09:30;;;;;;;2.83;1.77;;;13.00;99.90;;;;;;5063734;28;20426;-73
2022/10/01 08:11:56;;;;;;;2.38;1.45;;;13.00;99.90;;;;;;5054788;28;20039;-72
2022/10/01 08:14:22;;;;;;;2.10;1.40;;;12.90;99.90;;;;;;5073048;28;20067;-73
2022/10/01 08:16:47;;;;;;;3.13;1.20;;;13.00;99.90;;;;;;5094480;27;21521;-72
2022/10/01 08:19:14;;;;;;;4.30;1.70;;;13.00;99.90;;;;;;5076643;28;20120;-72
2022/10/01 08:21:40;;;;;;;3.67;1.42;;;13.10;99.90;;;;;;5094659;27;20041;-72
2022/10/01 08:24:06;;;;;;;4.78;1.40;;;13.10;99.90;;;;;;5061596;28;20051;-72
2022/10/01 08:26:32;;;;;;;2.42;1.50;;;13.20;99.90;;;;;;5081235;28;20044;-72
2022/10/01 08:28:58;;;;;;;2.97;1.50;;;13.30;99.90;;;;;;5047901;28;20152;-72
2022/10/01 08:31:24;;;;;;;1.90;1.25;;;13.40;99.90;;;;;;5053923;28;20060;-72
2022/10/01 08:33:50;;;;;;;2.95;1.48;;;13.40;99.90;;;;;;5104368;27;20577;-73
2022/10/01 08:36:15;;;;;;;3.05;1.10;;;13.40;99.90;;;;;;5067296;28;20040;-72
2022/10/01 08:38:45;;;;;;;2.72;1.23;;;13.50;99.90;;;;;;5106336;27;20582;-72
2022/10/01 08:41:32;;;;;;;2.88;1.42;;;13.50;99.90;;;;;;5045734;28;20159;-71
2022/10/01 08:44:00;;;;;;;2.38;1.30;;;13.60;99.90;;;;;;5053049;28;20044;-72
2022/10/01 08:46:31;;;;;;;5.25;1.33;;;13.70;99.90;;;;;;5092663;27;20058;-72
2022/10/01 08:49:22;;;;;;;2.83;1.20;;;13.60;99.90;;;;;;5071173;28;20119;-72
2022/10/01 08:52:21;;;;;;;1.98;1.00;;;13.80;99.90;;;;;;5059907;28;20040;-72
2022/10/01 08:54:59;;;;;;;1.13;0.82;;;13.90;99.90;;;;;;5086697;27;20449;-73
2022/10/01 08:57:31;;;;;;;4.63;1.38;;;14.00;99.90;;;;;;5049950;28;20430;-73
2022/10/01 09:00:06;;;;;;;1.55;0.95;;;14.00;99.90;;;;;;5085343;27;20114;-72
2022/10/01 09:02:33;;;;;;;;;;;14.10;99.90;;;;;;5054010;28;20043;-72
2022/10/01 09:05:03;;;;;;;6.80;1.10;;;14.30;99.90;;;;;;5067942;28;19917;-72
2022/10/01 09:07:47;;;;;;;0.82;0.60;;;14.20;99.90;;;;;;5066204;28;20033;-72
2022/10/01 09:10:43;;;;;;;7.00;1.30;;;14.20;99.90;;;;;;5065452;28;20040;-72
2022/10/01 09:13:14;;;;;;;2.28;0.60;;;14.30;99.90;;;;;;5065378;28;20045;-72
2022/10/01 09:15:55;;;;;;;1.80;0.88;;;14.30;99.90;;;;;;5070051;28;20086;-72
2022/10/01 09:18:24;;;;;;;2.78;0.60;;;14.40;99.90;;;;;;5064056;28;20041;-72
2022/10/01 09:20:57;;;;;;;5.70;1.40;;;14.40;99.90;;;;;;5068433;28;20498;-72
2022/10/01 09:23:33;;;;;;;1.52;0.55;;;14.40;99.90;;;;;;5088296;27;20399;-73
2022/10/01 09:25:58;;;;;;;;;;;14.50;99.90;;;;;;5051758;28;20184;-72
2022/10/01 09:28:30;;;;;;;1.77;0.70;;;14.50;99.90;;;;;;5052097;28;19928;-72
2022/10/01 09:31:08;;;;;;;5.53;0.98;;;14.60;99.90;;;;;;5063416;28;20044;-72
2022/10/01 09:33:39;;;;;;;3.20;0.70;;;14.60;99.90;;;;;;5066893;28;20053;-72
2022/10/01 09:36:32;;;;;;;2.25;0.75;;;14.60;99.90;;;;;;5085501;28;20525;-72
2022/10/01 09:39:19;;;;;;;2.03;0.65;;;14.60;99.90;;;;;;5028913;28;20063;-72
2022/10/01 09:41:45;;;;;;;2.55;0.70;;;14.70;99.90;;;;;;5050800;28;20068;-72
2022/10/01 09:44:28;;;;;;;0.68;0.50;;;14.80;99.90;;;;;;5066666;28;20927;-72
2022/10/01 09:46:54;;;;;;;8.18;0.93;;;14.90;99.90;;;;;;5066224;28;20059;-72
2022/10/01 09:49:26;;;;;;;6.93;1.15;;;14.90;99.90;;;;;;5040216;28;20439;-72
2022/10/01 09:51:56;;;;;;;0.50;0.40;;;14.80;99.90;;;;;;5058966;28;20109;-72
2022/10/01 09:54:46;;;;;;;0.52;0.35;;;14.70;99.90;;;;;;5044499;28;20052;-72
2022/10/01 09:57:24;;;;;;;2.20;0.32;;;14.70;99.90;;;;;;5046632;28;20522;-72
2022/10/01 10:00:03;;;;;;;2.60;0.70;;;14.60;99.90;;;;;;5029650;28;20108;-72
2022/10/01 10:02:36;;;;;;;1.88;0.38;;;14.50;99.90;;;;;;5043843;28;20127;-72
2022/10/01 10:05:26;;;;;;;0.32;0.20;;;14.50;99.90;;;;;;5065262;28;20044;-72
2022/10/01 10:07:56;;;;;;;2.17;0.50;;;14.40;99.90;;;;;;5046383;28;20080;-72
2022/10/01 10:10:27;;;;;;;1.55;0.30;;;14.40;99.90;;;;;;5089119;27;20202;-73
2022/10/01 10:13:01;;;;;;;2.55;0.50;;;14.30;99.90;;;;;;5084928;28;20097;-72
2022/10/01 10:15:30;;;;;;;1.23;0.30;;;14.20;99.90;;;;;;5059070;28;20393;-77
2022/10/01 10:18:05;;;;;;;2.10;0.20;;;14.10;99.90;;;;;;5041013;28;20048;-72
2022/10/01 10:20:37;;;;;;;0.43;0.20;;;14.10;99.90;;;;;;5066526;28;20032;-72
2022/10/01 10:23:19;;;;;;;2.17;0.20;;;14.20;99.90;;;;;;5075306;28;20041;-72
2022/10/01 10:26:02;;;;;;;1.55;0.47;;;14.10;99.90;;;;;;5088389;27;20048;-72
2022/10/01 10:28:38;;;;;;;4.80;0.60;;;14.10;99.90;;;;;;5051395;28;20563;-72
2022/10/01 10:31:12;;;;;;;0.63;0.30;;;14.10;99.90;;;;;;5043303;28;20136;-72
2022/10/01 10:33:52;;;;;;;0.38;0.20;;;14.20;99.90;;;;;;5089733;27;20181;-72
2022/10/01 10:36:18;;;;;;;1.58;0.30;;;14.20;99.90;;;;;;5069455;28;20068;-73
2022/10/01 10:38:49;;;;;;;0.60;0.20;;;14.20;99.90;;;;;;5054657;28;20906;-72
2022/10/01 10:41:20;;;;;;;1.55;0.30;;;14.20;99.90;;;;;;5093313;27;20502;-72
2022/10/01 10:43:48;;;;;;;0.95;0.30;;;14.10;99.90;;;;;;5095866;27;20052;-71
2022/10/01 10:46:27;;;;;;;2.60;0.38;;;14.00;99.90;;;;;;5058047;28;20137;-72
2022/10/01 10:49:03;;;;;;;1.25;0.30;;;14.00;99.90;;;;;;5044982;28;20084;-71
2022/10/01 10:51:29;;;;;;;0.60;0.30;;;13.90;99.90;;;;;;5067588;28;20036;-71
2022/10/01 10:53:59;;;;;;;0.50;0.30;;;13.90;99.90;;;;;;5069308;28;20132;-71
2022/10/01 10:56:25;;;;;;;1.27;0.25;;;13.70;99.90;;;;;;5067527;28;20040;-72
2022/10/01 10:58:52;;;;;;;0.20;0.10;;;13.50;99.90;;;;;;5070788;28;20040;-71
2022/10/01 11:01:27;;;;;;;1.08;0.47;;;13.30;99.90;;;;;;5060801;28;20521;-72
2022/10/01 11:03:56;;;;;;;0.95;0.32;;;13.20;99.90;;;;;;5063953;28;20033;-71
2022/10/01 11:06:22;;;;;;;0.45;0.17;;;13.10;99.90;;;;;;5052639;28;20045;-71
2022/10/01 11:08:58;;;;;;;2.83;0.20;;;13.00;99.90;;;;;;5086954;27;20438;-71
2022/10/01 11:11:48;;;;;;;0.85;0.30;;;13.00;99.90;;;;;;5035818;28;20371;-71
2022/10/01 11:14:47;;;;;;;1.05;0.20;;;13.00;99.90;;;;;;5050040;28;20040;-72
2022/10/01 11:17:40;;;;;;;0.43;0.30;;;13.00;99.90;;;;;;5080773;28;20055;-70
2022/10/01 11:20:18;;;;;;;0.10;0.05;;;13.00;99.90;;;;;;5081504;28;20037;-71
2022/10/01 11:23:11;;;;;;;1.38;0.30;;;13.10;99.90;;;;;;5063469;28;20047;-71
2022/10/01 11:25:51;;;;;;;0.95;0.20;;;13.20;99.90;;;;;;5063814;28;20060;-71
2022/10/01 11:28:46;;;;;;;1.65;0.45;;;13.20;99.90;;;;;;5046547;28;20508;-71
2022/10/01 11:31:35;;;;;;;0.32;0.10;;;13.20;99.90;;;;;;5066165;28;20157;-71
2022/10/01 11:34:19;;;;;;;0.30;0.20;;;13.30;99.90;;;;;;5044547;28;20072;-71
2022/10/01 11:37:00;;;;;;;1.25;0.20;;;13.40;99.90;;;;;;5066226;28;20045;-71
2022/10/01 11:39:28;;;;;;;1.17;0.25;;;13.40;99.90;;;;;;5078396;28;20041;-71
2022/10/01 11:42:01;;;;;;;0.65;0.25;;;13.50;99.90;;;;;;5062525;28;20047;-71
2022/10/01 11:44:52;;;;;;;0.75;0.35;;;13.60;99.90;;;;;;5063695;28;20579;-71
2022/10/01 11:47:29;;;;;;;0.82;0.20;;;13.60;99.90;;;;;;5079938;28;20040;-71
2022/10/01 11:50:17;;;;;;;0.20;0.10;;;13.70;99.90;;;;;;5080617;28;20080;-71
2022/10/01 11:52:52;;;;;;;0.60;0.35;;;13.80;99.90;;;;;;5046260;28;20490;-71
2022/10/01 12:01:36;;;;;;;2.05;0.40;;;14.00;99.90;;;;;;5083602;28;20057;-71
2022/10/01 12:04:31;;;;;;;1.65;0.75;;;14.10;99.90;;;;;;5063185;28;20041;-71
2022/10/01 12:07:15;;;;;;;0.85;0.55;;;14.10;99.90;;;;;;5066677;28;20051;-71
2022/10/01 12:10:16;;;;;;;0.85;0.40;;;14.20;99.90;;;;;;5066049;28;20045;-71
2022/10/01 12:13:14;;;;;;;2.92;0.57;;;14.30;99.90;;;;;;5065533;28;20524;-71
2022/10/01 12:16:00;;;;;;;2.47;0.40;;;14.40;99.90;;;;;;5046958;28;20049;-71
2022/10/01 12:18:26;;;;;;;;;;;14.40;99.90;;;;;;5075675;28;20033;-71
2022/10/01 12:20:56;;;;;;;2.63;0.50;;;14.40;99.90;;;;;;5085030;28;19916;-71
2022/10/01 12:23:27;;;;;;;2.80;0.45;;;14.40;99.90;;;;;;5070167;28;20040;-71
2022/10/01 12:26:04;;;;;;;0.82;0.40;;;14.50;99.90;;;;;;5070865;28;20045;-71
2022/10/01 12:28:43;;;;;;;3.30;0.57;;;14.50;99.90;;;;;;5053054;28;20037;-71
2022/10/01 12:31:54;;;;;;;0.47;0.30;;;14.70;99.90;;;;;;5070157;28;20375;-71
2022/10/01 12:34:37;;;;;;;3.78;0.70;;;14.70;99.90;;;;;;5053901;28;20075;-71
2022/10/01 12:37:50;;;;;;;2.45;0.50;;;14.90;99.90;;;;;;5068309;28;20098;-71
2022/10/01 12:40:43;;;;;;;2.22;0.43;;;15.00;99.90;;;;;;5050295;28;20036;-71
2022/10/01 12:43:30;;;;;;;2.10;0.50;;;15.00;99.90;;;;;;5085589;28;20091;-71
2022/10/01 12:46:07;;;;;;;1.55;0.40;;;15.00;99.90;;;;;;5070136;28;20044;-71
2022/10/01 12:48:53;;;;;;;2.38;0.57;;;14.90;99.90;;;;;;5069588;28;20048;-71
2022/10/01 12:51:37;;;;;;;4.43;0.73;;;14.90;99.90;;;;;;5069389;28;20055;-71
2022/10/01 12:54:17;;;;;;;3.78;0.40;;;14.80;99.90;;;;;;5059031;28;20427;-71
2022/10/01 12:56:47;;;;;;;2.15;0.50;;;14.70;99.90;;;;;;5090247;28;20052;-71
2022/10/01 12:59:16;;;;;;;0.70;0.30;;;14.70;99.90;;;;;;5069813;28;20048;-71
2022/10/01 13:01:41;;;;;;;1.27;0.60;;;14.60;99.90;;;;;;5053285;28;20041;-71
2022/10/01 13:04:24;;;;;;;1.88;0.38;;;14.60;99.90;;;;;;5065834;28;20041;-71
2022/10/01 13:07:24;;;;;;;1.20;0.55;;;14.60;99.90;;;;;;5097022;28;20044;-71
2022/10/01 13:10:09;;;;;;;3.45;0.73;;;14.70;99.90;;;;;;5069286;28;20105;-71
2022/10/01 13:12:44;;;;;;;3.10;0.57;;;14.80;99.90;;;;;;5068569;28;20063;-71
2022/10/01 13:15:16;;;;;;;2.75;0.60;;;14.90;99.90;;;;;;5079898;28;20482;-71
2022/10/01 13:18:08;;;;;;;4.38;0.52;;;14.90;99.90;;;;;;5049560;28;20190;-71
2022/10/01 13:20:50;;;;;;;1.55;0.45;;;15.00;99.90;;;;;;5078561;28;20113;-71
2022/10/01 13:23:48;;;;;;;0.93;0.52;;;15.00;99.90;;;;;;5067678;28;20105;-71